sensor_id;sensor_type;location;lat;lon;timestamp;P1;durP1;ratioP1;P2;durP2;ratioP2
14381;SDS011;7275;50.328;8.720;2023-05-17T00:01:31;3.60;;;2.27;;
14381;SDS011;7275;50.328;8.720;2023-05-17T00:03:58;3.23;;;2.23;;
14381;SDS011;7275;50.328;8.720;2023-05-17T00:06:26;3.70;;;2.27;;
14381;SDS011;7275;50.328;8.720;2023-05-17T00:08:54;3.23;;;2.20;;
14381;SDS011;7275;50.328;8.720;2023-05-17T00:11:23;2.70;;;1.97;;
14381;SDS011;7275;50.328;8.720;2023-05-17T00:13:51;2.10;;;1.67;;
14381;SDS011;7275;50.328;8.720;2023-05-17T00:16:18;3.23;;;2.00;;
14381;SDS011;7275;50.328;8.720;2023-05-17T00:18:46;2.67;;;2.00;;
14381;SDS011;7275;50.328;8.720;2023-05-17T00:21:14;2.73;;;1.80;;
14381;SDS011;7275;50.328;8.720;2023-05-17T00:23:41;2.37;;;1.87;;
14381;SDS011;7275;50.328;8.720;2023-05-17T00:26:09;3.03;;;2.10;;
14381;SDS011;7275;50.328;8.720;2023-05-17T00:28:38;3.33;;;2.10;;
14381;SDS011;7275;50.328;8.720;2023-05-17T00:31:05;2.80;;;2.10;;
14381;SDS011;7275;50.328;8.720;2023-05-17T00:33:33;3.93;;;2.07;;
14381;SDS011;7275;50.328;8.720;2023-05-17T00:36:00;4.33;;;2.13;;
14381;SDS011;7275;50.328;8.720;2023-05-17T00:38:28;4.17;;;2.10;;
14381;SDS011;7275;50.328;8.720;2023-05-17T00:40:56;3.13;;;2.10;;
14381;SDS011;7275;50.328;8.720;2023-05-17T00:43:23;3.30;;;1.80;;
14381;SDS011;7275;50.328;8.720;2023-05-17T00:45:52;4.50;;;2.40;;
14381;SDS011;7275;50.328;8.720;2023-05-17T00:48:20;2.47;;;2.13;;
14381;SDS011;7275;50.328;8.720;2023-05-17T00:50:50;4.00;;;2.20;;
14381;SDS011;7275;50.328;8.720;2023-05-17T00:53:19;3.17;;;2.37;;
14381;SDS011;7275;50.328;8.720;2023-05-17T00:55:46;3.60;;;2.17;;
14381;SDS011;7275;50.328;8.720;2023-05-17T00:58:15;4.33;;;2.30;;
14381;SDS011;7275;50.328;8.720;2023-05-17T01:00:43;2.83;;;2.10;;
14381;SDS011;7275;50.328;8.720;2023-05-17T01:03:12;4.27;;;1.97;;
14381;SDS011;7275;50.328;8.720;2023-05-17T01:05:40;2.90;;;1.97;;
14381;SDS011;7275;50.328;8.720;2023-05-17T01:08:07;3.57;;;2.20;;
14381;SDS011;7275;50.328;8.720;2023-05-17T01:10:35;2.83;;;2.13;;
14381;SDS011;7275;50.328;8.720;2023-05-17T01:13:09;2.73;;;1.77;;
14381;SDS011;7275;50.328;8.720;2023-05-17T01:15:42;2.53;;;1.93;;
14381;SDS011;7275;50.328;8.720;2023-05-17T01:18:16;2.47;;;1.90;;
14381;SDS011;7275;50.328;8.720;2023-05-17T01:20:49;2.73;;;1.90;;
14381;SDS011;7275;50.328;8.720;2023-05-17T01:23:26;3.83;;;2.13;;
14381;SDS011;7275;50.328;8.720;2023-05-17T01:26:09;3.40;;;1.90;;
14381;SDS011;7275;50.328;8.720;2023-05-17T01:28:43;2.97;;;1.93;;
14381;SDS011;7275;50.328;8.720;2023-05-17T01:31:12;2.37;;;1.97;;
14381;SDS011;7275;50.328;8.720;2023-05-17T01:33:40;3.70;;;2.40;;
14381;SDS011;7275;50.328;8.720;2023-05-17T01:36:08;3.07;;;1.97;;
14381;SDS011;7275;50.328;8.720;2023-05-17T01:38:36;2.60;;;1.97;;
14381;SDS011;7275;50.328;8.720;2023-05-17T01:41:04;3.47;;;2.20;;
14381;SDS011;7275;50.328;8.720;2023-05-17T01:43:38;3.53;;;2.17;;
14381;SDS011;7275;50.328;8.720;2023-05-17T01:46:15;2.90;;;2.17;;
14381;SDS011;7275;50.328;8.720;2023-05-17T01:48:51;3.03;;;1.87;;
14381;SDS011;7275;50.328;8.720;2023-05-17T01:51:27;3.00;;;1.97;;
14381;SDS011;7275;50.328;8.720;2023-05-17T01:54:04;2.57;;;1.73;;
14381;SDS011;7275;50.328;8.720;2023-05-17T01:56:37;2.57;;;1.73;;
14381;SDS011;7275;50.328;8.720;2023-05-17T01:59:09;2.80;;;1.87;;
14381;SDS011;7275;50.328;8.720;2023-05-17T02:01:39;2.30;;;1.50;;
14381;SDS011;7275;50.328;8.720;2023-05-17T02:04:08;1.87;;;1.50;;
14381;SDS011;7275;50.328;8.720;2023-05-17T02:06:36;4.03;;;2.00;;
14381;SDS011;7275;50.328;8.720;2023-05-17T02:09:04;3.43;;;1.63;;
14381;SDS011;7275;50.328;8.720;2023-05-17T02:11:31;3.30;;;2.03;;
14381;SDS011;7275;50.328;8.720;2023-05-17T02:13:59;2.23;;;1.77;;
14381;SDS011;7275;50.328;8.720;2023-05-17T02:16:26;2.63;;;1.77;;
14381;SDS011;7275;50.328;8.720;2023-05-17T02:18:55;2.77;;;1.63;;
14381;SDS011;7275;50.328;8.720;2023-05-17T02:21:23;2.30;;;1.70;;
14381;SDS011;7275;50.328;8.720;2023-05-17T02:23:51;2.57;;;1.90;;
14381;SDS011;7275;50.328;8.720;2023-05-17T02:26:18;3.10;;;1.80;;
14381;SDS011;7275;50.328;8.720;2023-05-17T02:28:46;3.23;;;1.80;;
14381;SDS011;7275;50.328;8.720;2023-05-17T02:31:14;3.10;;;1.97;;
14381;SDS011;7275;50.328;8.720;2023-05-17T02:33:41;2.97;;;2.00;;
14381;SDS011;7275;50.328;8.720;2023-05-17T02:36:10;4.33;;;2.03;;
14381;SDS011;7275;50.328;8.720;2023-05-17T02:38:38;4.00;;;2.20;;
14381;SDS011;7275;50.328;8.720;2023-05-17T02:41:05;3.43;;;2.30;;
14381;SDS011;7275;50.328;8.720;2023-05-17T02:43:33;3.33;;;2.30;;
14381;SDS011;7275;50.328;8.720;2023-05-17T02:46:00;3.17;;;2.10;;
14381;SDS011;7275;50.328;8.720;2023-05-17T02:48:28;4.27;;;2.40;;
14381;SDS011;7275;50.328;8.720;2023-05-17T02:50:55;3.37;;;2.27;;
14381;SDS011;7275;50.328;8.720;2023-05-17T02:53:24;3.30;;;2.10;;
14381;SDS011;7275;50.328;8.720;2023-05-17T02:55:52;4.27;;;1.97;;
14381;SDS011;7275;50.328;8.720;2023-05-17T02:58:23;2.43;;;1.87;;
14381;SDS011;7275;50.328;8.720;2023-05-17T03:00:50;2.80;;;2.03;;
14381;SDS011;7275;50.328;8.720;2023-05-17T03:03:19;3.83;;;2.10;;
14381;SDS011;7275;50.328;8.720;2023-05-17T03:05:46;3.30;;;1.80;;
14381;SDS011;7275;50.328;8.720;2023-05-17T03:08:14;2.87;;;1.93;;
14381;SDS011;7275;50.328;8.720;2023-05-17T03:10:43;3.87;;;2.10;;
14381;SDS011;7275;50.328;8.720;2023-05-17T03:13:10;2.73;;;2.00;;
14381;SDS011;7275;50.328;8.720;2023-05-17T03:15:38;4.20;;;2.17;;
14381;SDS011;7275;50.328;8.720;2023-05-17T03:18:05;2.40;;;1.73;;
14381;SDS011;7275;50.328;8.720;2023-05-17T03:20:33;2.57;;;1.67;;
14381;SDS011;7275;50.328;8.720;2023-05-17T03:23:01;3.17;;;1.87;;
14381;SDS011;7275;50.328;8.720;2023-05-17T03:25:28;2.13;;;1.70;;
14381;SDS011;7275;50.328;8.720;2023-05-17T03:27:57;2.40;;;1.73;;
14381;SDS011;7275;50.328;8.720;2023-05-17T03:30:25;4.20;;;1.90;;
14381;SDS011;7275;50.328;8.720;2023-05-17T03:32:53;2.90;;;1.93;;
14381;SDS011;7275;50.328;8.720;2023-05-17T03:35:21;2.57;;;1.80;;
14381;SDS011;7275;50.328;8.720;2023-05-17T03:37:49;2.20;;;1.63;;
14381;SDS011;7275;50.328;8.720;2023-05-17T03:40:16;2.97;;;1.90;;
14381;SDS011;7275;50.328;8.720;2023-05-17T03:42:44;2.30;;;1.87;;
14381;SDS011;7275;50.328;8.720;2023-05-17T03:45:13;2.37;;;1.83;;
14381;SDS011;7275;50.328;8.720;2023-05-17T03:47:41;3.07;;;1.80;;
14381;SDS011;7275;50.328;8.720;2023-05-17T03:50:09;2.37;;;1.70;;
14381;SDS011;7275;50.328;8.720;2023-05-17T03:52:37;2.10;;;1.70;;
14381;SDS011;7275;50.328;8.720;2023-05-17T03:55:07;3.43;;;1.90;;
14381;SDS011;7275;50.328;8.720;2023-05-17T03:57:35;2.53;;;1.87;;
14381;SDS011;7275;50.328;8.720;2023-05-17T04:00:03;3.63;;;2.20;;
14381;SDS011;7275;50.328;8.720;2023-05-17T04:02:37;2.60;;;1.90;;
14381;SDS011;7275;50.328;8.720;2023-05-17T04:05:05;2.70;;;1.90;;
14381;SDS011;7275;50.328;8.720;2023-05-17T04:07:33;2.87;;;1.90;;
14381;SDS011;7275;50.328;8.720;2023-05-17T04:10:01;3.13;;;1.80;;
14381;SDS011;7275;50.328;8.720;2023-05-17T04:12:28;2.33;;;1.90;;
14381;SDS011;7275;50.328;8.720;2023-05-17T04:14:56;2.73;;;1.97;;
14381;SDS011;7275;50.328;8.720;2023-05-17T04:17:23;4.47;;;2.00;;
14381;SDS011;7275;50.328;8.720;2023-05-17T04:19:52;2.80;;;2.17;;
14381;SDS011;7275;50.328;8.720;2023-05-17T04:22:20;2.77;;;1.90;;
14381;SDS011;7275;50.328;8.720;2023-05-17T04:24:48;2.90;;;1.80;;
14381;SDS011;7275;50.328;8.720;2023-05-17T04:27:15;2.30;;;2.00;;
14381;SDS011;7275;50.328;8.720;2023-05-17T04:29:43;3.00;;;2.07;;
14381;SDS011;7275;50.328;8.720;2023-05-17T04:32:11;2.57;;;2.00;;
14381;SDS011;7275;50.328;8.720;2023-05-17T04:34:39;2.30;;;1.93;;
14381;SDS011;7275;50.328;8.720;2023-05-17T04:37:09;2.77;;;2.03;;
14381;SDS011;7275;50.328;8.720;2023-05-17T04:39:37;3.23;;;2.10;;
14381;SDS011;7275;50.328;8.720;2023-05-17T04:42:05;2.37;;;1.90;;
14381;SDS011;7275;50.328;8.720;2023-05-17T04:44:32;2.63;;;2.10;;
14381;SDS011;7275;50.328;8.720;2023-05-17T04:47:00;2.30;;;1.90;;
14381;SDS011;7275;50.328;8.720;2023-05-17T04:49:28;2.33;;;2.03;;
14381;SDS011;7275;50.328;8.720;2023-05-17T04:51:56;2.40;;;2.00;;
14381;SDS011;7275;50.328;8.720;2023-05-17T04:54:25;2.47;;;2.10;;
14381;SDS011;7275;50.328;8.720;2023-05-17T04:56:53;3.50;;;2.30;;
14381;SDS011;7275;50.328;8.720;2023-05-17T04:59:21;2.50;;;2.20;;
14381;SDS011;7275;50.328;8.720;2023-05-17T05:01:48;4.00;;;2.23;;
14381;SDS011;7275;50.328;8.720;2023-05-17T05:04:16;4.63;;;2.20;;
14381;SDS011;7275;50.328;8.720;2023-05-17T05:06:43;3.50;;;2.37;;
14381;SDS011;7275;50.328;8.720;2023-05-17T05:09:11;4.23;;;2.17;;
14381;SDS011;7275;50.328;8.720;2023-05-17T05:11:40;4.33;;;2.40;;
14381;SDS011;7275;50.328;8.720;2023-05-17T05:14:08;2.77;;;2.23;;
14381;SDS011;7275;50.328;8.720;2023-05-17T05:16:35;2.93;;;2.17;;
14381;SDS011;7275;50.328;8.720;2023-05-17T05:19:03;2.73;;;1.93;;
14381;SDS011;7275;50.328;8.720;2023-05-17T05:21:31;4.40;;;2.20;;
14381;SDS011;7275;50.328;8.720;2023-05-17T05:23:59;4.20;;;2.20;;
14381;SDS011;7275;50.328;8.720;2023-05-17T05:26:28;3.17;;;2.10;;
14381;SDS011;7275;50.328;8.720;2023-05-17T05:28:58;2.67;;;2.00;;
14381;SDS011;7275;50.328;8.720;2023-05-17T05:31:26;2.57;;;2.20;;
14381;SDS011;7275;50.328;8.720;2023-05-17T05:33:53;3.30;;;1.90;;
14381;SDS011;7275;50.328;8.720;2023-05-17T05:36:21;2.30;;;1.87;;
14381;SDS011;7275;50.328;8.720;2023-05-17T05:38:48;3.07;;;1.93;;
14381;SDS011;7275;50.328;8.720;2023-05-17T05:41:18;3.07;;;2.10;;
14381;SDS011;7275;50.328;8.720;2023-05-17T05:43:46;2.90;;;2.10;;
14381;SDS011;7275;50.328;8.720;2023-05-17T05:46:15;3.43;;;2.20;;
14381;SDS011;7275;50.328;8.720;2023-05-17T05:48:42;2.97;;;2.13;;
14381;SDS011;7275;50.328;8.720;2023-05-17T05:51:10;2.60;;;1.90;;
14381;SDS011;7275;50.328;8.720;2023-05-17T05:53:38;3.87;;;2.37;;
14381;SDS011;7275;50.328;8.720;2023-05-17T05:56:06;5.00;;;2.33;;
14381;SDS011;7275;50.328;8.720;2023-05-17T05:58:34;4.43;;;2.37;;
14381;SDS011;7275;50.328;8.720;2023-05-17T06:01:02;4.87;;;2.27;;
14381;SDS011;7275;50.328;8.720;2023-05-17T06:03:33;4.87;;;2.50;;
14381;SDS011;7275;50.328;8.720;2023-05-17T06:06:00;2.77;;;2.10;;
14381;SDS011;7275;50.328;8.720;2023-05-17T06:08:28;4.20;;;2.37;;
14381;SDS011;7275;50.328;8.720;2023-05-17T06:10:55;5.27;;;2.23;;
14381;SDS011;7275;50.328;8.720;2023-05-17T06:13:23;3.63;;;2.00;;
14381;SDS011;7275;50.328;8.720;2023-05-17T06:15:51;3.80;;;2.20;;
14381;SDS011;7275;50.328;8.720;2023-05-17T06:18:18;5.03;;;2.50;;
14381;SDS011;7275;50.328;8.720;2023-05-17T06:20:47;3.53;;;2.43;;
14381;SDS011;7275;50.328;8.720;2023-05-17T06:23:15;3.37;;;2.23;;
14381;SDS011;7275;50.328;8.720;2023-05-17T06:25:42;5.27;;;2.57;;
14381;SDS011;7275;50.328;8.720;2023-05-17T06:28:10;4.17;;;2.60;;
14381;SDS011;7275;50.328;8.720;2023-05-17T06:30:37;3.57;;;2.37;;
14381;SDS011;7275;50.328;8.720;2023-05-17T06:33:05;4.30;;;2.40;;
14381;SDS011;7275;50.328;8.720;2023-05-17T06:35:33;4.07;;;2.30;;
14381;SDS011;7275;50.328;8.720;2023-05-17T06:38:21;5.03;;;2.00;;
14381;SDS011;7275;50.328;8.720;2023-05-17T06:40:50;5.40;;;2.50;;
14381;SDS011;7275;50.328;8.720;2023-05-17T06:43:18;3.43;;;2.13;;
14381;SDS011;7275;50.328;8.720;2023-05-17T06:45:45;3.33;;;2.30;;
14381;SDS011;7275;50.328;8.720;2023-05-17T06:48:13;3.37;;;2.10;;
14381;SDS011;7275;50.328;8.720;2023-05-17T06:50:41;3.87;;;2.07;;
14381;SDS011;7275;50.328;8.720;2023-05-17T06:53:09;3.73;;;2.00;;
14381;SDS011;7275;50.328;8.720;2023-05-17T06:55:38;3.07;;;2.17;;
14381;SDS011;7275;50.328;8.720;2023-05-17T06:58:06;4.03;;;2.23;;
14381;SDS011;7275;50.328;8.720;2023-05-17T07:00:34;3.53;;;2.07;;
14381;SDS011;7275;50.328;8.720;2023-05-17T07:03:02;3.33;;;1.97;;
14381;SDS011;7275;50.328;8.720;2023-05-17T07:05:30;3.17;;;2.00;;
14381;SDS011;7275;50.328;8.720;2023-05-17T07:07:58;3.57;;;2.10;;
14381;SDS011;7275;50.328;8.720;2023-05-17T07:10:25;5.07;;;2.20;;
14381;SDS011;7275;50.328;8.720;2023-05-17T07:12:54;4.33;;;2.10;;
14381;SDS011;7275;50.328;8.720;2023-05-17T07:15:23;2.83;;;2.10;;
14381;SDS011;7275;50.328;8.720;2023-05-17T07:17:51;3.73;;;1.97;;
14381;SDS011;7275;50.328;8.720;2023-05-17T07:20:18;3.23;;;2.03;;
14381;SDS011;7275;50.328;8.720;2023-05-17T07:22:46;4.13;;;2.00;;
14381;SDS011;7275;50.328;8.720;2023-05-17T07:25:14;3.00;;;2.20;;
14381;SDS011;7275;50.328;8.720;2023-05-17T07:27:43;5.37;;;2.50;;
14381;SDS011;7275;50.328;8.720;2023-05-17T07:30:13;3.83;;;2.30;;
14381;SDS011;7275;50.328;8.720;2023-05-17T07:32:42;4.70;;;2.10;;
14381;SDS011;7275;50.328;8.720;2023-05-17T07:35:10;3.90;;;2.07;;
14381;SDS011;7275;50.328;8.720;2023-05-17T07:37:38;3.80;;;2.30;;
14381;SDS011;7275;50.328;8.720;2023-05-17T07:40:06;4.60;;;2.00;;
14381;SDS011;7275;50.328;8.720;2023-05-17T07:42:35;5.60;;;2.27;;
14381;SDS011;7275;50.328;8.720;2023-05-17T07:45:03;4.73;;;2.10;;
14381;SDS011;7275;50.328;8.720;2023-05-17T07:47:33;5.00;;;2.30;;
14381;SDS011;7275;50.328;8.720;2023-05-17T07:50:01;3.70;;;2.03;;
14381;SDS011;7275;50.328;8.720;2023-05-17T07:52:29;4.87;;;2.20;;
14381;SDS011;7275;50.328;8.720;2023-05-17T07:54:57;4.80;;;2.27;;
14381;SDS011;7275;50.328;8.720;2023-05-17T07:57:24;4.03;;;2.20;;
14381;SDS011;7275;50.328;8.720;2023-05-17T07:59:52;4.50;;;2.20;;
14381;SDS011;7275;50.328;8.720;2023-05-17T08:02:20;4.87;;;2.27;;
14381;SDS011;7275;50.328;8.720;2023-05-17T08:04:49;4.00;;;2.07;;
14381;SDS011;7275;50.328;8.720;2023-05-17T08:07:17;2.90;;;1.93;;
14381;SDS011;7275;50.328;8.720;2023-05-17T08:09:45;4.20;;;2.23;;
14381;SDS011;7275;50.328;8.720;2023-05-17T08:12:12;3.67;;;2.07;;
14381;SDS011;7275;50.328;8.720;2023-05-17T08:14:40;4.00;;;2.20;;
14381;SDS011;7275;50.328;8.720;2023-05-17T08:17:07;4.93;;;2.40;;
14381;SDS011;7275;50.328;8.720;2023-05-17T08:19:35;3.43;;;2.10;;
14381;SDS011;7275;50.328;8.720;2023-05-17T08:22:05;3.67;;;2.10;;
14381;SDS011;7275;50.328;8.720;2023-05-17T08:24:33;2.87;;;1.70;;
14381;SDS011;7275;50.328;8.720;2023-05-17T08:27:01;2.37;;;1.77;;
14381;SDS011;7275;50.328;8.720;2023-05-17T08:29:28;4.20;;;1.90;;
14381;SDS011;7275;50.328;8.720;2023-05-17T08:31:56;3.13;;;1.53;;
14381;SDS011;7275;50.328;8.720;2023-05-17T08:34:23;4.07;;;1.67;;
14381;SDS011;7275;50.328;8.720;2023-05-17T08:36:51;3.03;;;1.80;;
14381;SDS011;7275;50.328;8.720;2023-05-17T08:39:21;2.37;;;1.53;;
14381;SDS011;7275;50.328;8.720;2023-05-17T08:41:48;6.90;;;2.00;;
14381;SDS011;7275;50.328;8.720;2023-05-17T08:44:16;3.77;;;1.90;;
14381;SDS011;7275;50.328;8.720;2023-05-17T08:46:44;3.10;;;1.80;;
14381;SDS011;7275;50.328;8.720;2023-05-17T08:49:19;3.60;;;2.20;;
14381;SDS011;7275;50.328;8.720;2023-05-17T08:51:48;2.87;;;1.80;;
14381;SDS011;7275;50.328;8.720;2023-05-17T08:54:20;2.57;;;1.63;;
14381;SDS011;7275;50.328;8.720;2023-05-17T08:56:48;3.83;;;1.83;;
14381;SDS011;7275;50.328;8.720;2023-05-17T08:59:19;3.20;;;1.90;;
14381;SDS011;7275;50.328;8.720;2023-05-17T09:01:48;3.60;;;2.00;;
14381;SDS011;7275;50.328;8.720;2023-05-17T09:04:19;4.00;;;2.10;;
14381;SDS011;7275;50.328;8.720;2023-05-17T09:06:48;3.43;;;1.90;;
14381;SDS011;7275;50.328;8.720;2023-05-17T09:09:16;3.00;;;1.70;;
14381;SDS011;7275;50.328;8.720;2023-05-17T09:11:46;3.33;;;2.10;;
14381;SDS011;7275;50.328;8.720;2023-05-17T09:14:14;3.97;;;2.10;;
14381;SDS011;7275;50.328;8.720;2023-05-17T09:16:42;3.87;;;1.70;;
14381;SDS011;7275;50.328;8.720;2023-05-17T09:19:13;5.07;;;1.80;;
14381;SDS011;7275;50.328;8.720;2023-05-17T09:21:46;2.90;;;1.77;;
14381;SDS011;7275;50.328;8.720;2023-05-17T09:24:15;2.27;;;1.70;;
14381;SDS011;7275;50.328;8.720;2023-05-17T09:26:46;2.80;;;1.80;;
14381;SDS011;7275;50.328;8.720;2023-05-17T09:29:15;4.43;;;2.17;;
14381;SDS011;7275;50.328;8.720;2023-05-17T09:31:43;3.07;;;1.77;;
14381;SDS011;7275;50.328;8.720;2023-05-17T09:34:11;2.67;;;1.80;;
14381;SDS011;7275;50.328;8.720;2023-05-17T09:36:40;3.03;;;1.70;;
14381;SDS011;7275;50.328;8.720;2023-05-17T09:39:09;3.80;;;2.10;;
14381;SDS011;7275;50.328;8.720;2023-05-17T09:41:40;3.27;;;2.00;;
14381;SDS011;7275;50.328;8.720;2023-05-17T09:44:12;2.43;;;1.70;;
14381;SDS011;7275;50.328;8.720;2023-05-17T09:46:41;2.93;;;1.90;;
14381;SDS011;7275;50.328;8.720;2023-05-17T09:49:10;3.17;;;1.83;;
14381;SDS011;7275;50.328;8.720;2023-05-17T09:51:39;3.40;;;1.90;;
14381;SDS011;7275;50.328;8.720;2023-05-17T09:54:08;3.00;;;1.60;;
14381;SDS011;7275;50.328;8.720;2023-05-17T09:56:36;3.40;;;1.90;;
14381;SDS011;7275;50.328;8.720;2023-05-17T09:59:09;2.77;;;1.83;;
14381;SDS011;7275;50.328;8.720;2023-05-17T10:01:41;5.27;;;1.97;;
14381;SDS011;7275;50.328;8.720;2023-05-17T10:04:11;2.77;;;1.77;;
14381;SDS011;7275;50.328;8.720;2023-05-17T10:06:40;2.47;;;1.43;;
14381;SDS011;7275;50.328;8.720;2023-05-17T10:09:17;3.93;;;1.77;;
14381;SDS011;7275;50.328;8.720;2023-05-17T10:11:47;3.20;;;1.80;;
14381;SDS011;7275;50.328;8.720;2023-05-17T10:14:21;2.33;;;1.55;;
14381;SDS011;7275;50.328;8.720;2023-05-17T10:16:51;2.50;;;1.55;;
14381;SDS011;7275;50.328;8.720;2023-05-17T10:19:20;2.83;;;1.70;;
14381;SDS011;7275;50.328;8.720;2023-05-17T10:21:49;3.60;;;1.80;;
14381;SDS011;7275;50.328;8.720;2023-05-17T10:24:19;2.10;;;1.42;;
14381;SDS011;7275;50.328;8.720;2023-05-17T10:26:47;3.35;;;1.48;;
14381;SDS011;7275;50.328;8.720;2023-05-17T10:29:16;3.10;;;1.40;;
14381;SDS011;7275;50.328;8.720;2023-05-17T10:31:47;3.45;;;1.45;;
14381;SDS011;7275;50.328;8.720;2023-05-17T10:34:16;4.38;;;1.40;;
14381;SDS011;7275;50.328;8.720;2023-05-17T10:36:45;3.50;;;1.58;;
14381;SDS011;7275;50.328;8.720;2023-05-17T10:39:15;3.05;;;1.67;;
14381;SDS011;7275;50.328;8.720;2023-05-17T10:41:43;3.42;;;1.42;;
14381;SDS011;7275;50.328;8.720;2023-05-17T10:44:14;1.75;;;1.30;;
14381;SDS011;7275;50.328;8.720;2023-05-17T10:46:51;2.38;;;1.27;;
14381;SDS011;7275;50.328;8.720;2023-05-17T10:49:22;2.83;;;1.45;;
14381;SDS011;7275;50.328;8.720;2023-05-17T10:51:51;3.05;;;1.52;;
14381;SDS011;7275;50.328;8.720;2023-05-17T10:54:19;3.00;;;1.52;;
14381;SDS011;7275;50.328;8.720;2023-05-17T10:56:47;2.33;;;1.50;;
14381;SDS011;7275;50.328;8.720;2023-05-17T10:59:16;2.90;;;1.50;;
14381;SDS011;7275;50.328;8.720;2023-05-17T11:04:37;2.00;;;1.27;;
14381;SDS011;7275;50.328;8.720;2023-05-17T11:07:19;2.95;;;1.50;;
14381;SDS011;7275;50.328;8.720;2023-05-17T11:09:55;1.55;;;1.17;;
14381;SDS011;7275;50.328;8.720;2023-05-17T11:12:31;2.42;;;1.30;;
14381;SDS011;7275;50.328;8.720;2023-05-17T11:15:05;2.17;;;1.33;;
14381;SDS011;7275;50.328;8.720;2023-05-17T11:17:37;2.25;;;1.20;;
14381;SDS011;7275;50.328;8.720;2023-05-17T11:20:29;3.25;;;1.50;;
14381;SDS011;7275;50.328;8.720;2023-05-17T11:22:59;3.63;;;1.33;;
14381;SDS011;7275;50.328;8.720;2023-05-17T11:25:29;3.65;;;1.50;;
14381;SDS011;7275;50.328;8.720;2023-05-17T11:28:05;3.80;;;1.52;;
14381;SDS011;7275;50.328;8.720;2023-05-17T11:30:37;4.57;;;1.58;;
14381;SDS011;7275;50.328;8.720;2023-05-17T11:33:08;2.55;;;1.38;;
14381;SDS011;7275;50.328;8.720;2023-05-17T11:35:54;2.72;;;1.42;;
14381;SDS011;7275;50.328;8.720;2023-05-17T11:38:22;3.67;;;1.45;;
14381;SDS011;7275;50.328;8.720;2023-05-17T11:40:55;2.95;;;1.65;;
14381;SDS011;7275;50.328;8.720;2023-05-17T11:43:24;2.35;;;1.35;;
14381;SDS011;7275;50.328;8.720;2023-05-17T11:45:56;3.92;;;1.65;;
14381;SDS011;7275;50.328;8.720;2023-05-17T11:48:28;2.97;;;1.60;;
14381;SDS011;7275;50.328;8.720;2023-05-17T11:50:56;2.75;;;1.45;;
14381;SDS011;7275;50.328;8.720;2023-05-17T11:53:27;2.85;;;1.48;;
14381;SDS011;7275;50.328;8.720;2023-05-17T11:55:57;2.10;;;1.40;;
14381;SDS011;7275;50.328;8.720;2023-05-17T11:58:29;3.17;;;1.50;;
14381;SDS011;7275;50.328;8.720;2023-05-17T12:00:57;3.25;;;1.60;;
14381;SDS011;7275;50.328;8.720;2023-05-17T12:03:26;4.43;;;1.63;;
14381;SDS011;7275;50.328;8.720;2023-05-17T12:06:03;2.78;;;1.55;;
14381;SDS011;7275;50.328;8.720;2023-05-17T12:08:32;3.17;;;1.80;;
14381;SDS011;7275;50.328;8.720;2023-05-17T12:11:00;3.08;;;1.70;;
14381;SDS011;7275;50.328;8.720;2023-05-17T12:13:28;5.03;;;1.60;;
14381;SDS011;7275;50.328;8.720;2023-05-17T12:15:58;2.67;;;1.52;;
14381;SDS011;7275;50.328;8.720;2023-05-17T12:18:35;2.78;;;1.60;;
14381;SDS011;7275;50.328;8.720;2023-05-17T12:21:04;2.60;;;1.45;;
14381;SDS011;7275;50.328;8.720;2023-05-17T12:23:33;3.13;;;1.58;;
14381;SDS011;7275;50.328;8.720;2023-05-17T12:26:07;3.95;;;1.45;;
14381;SDS011;7275;50.328;8.720;2023-05-17T12:28:37;3.83;;;1.75;;
14381;SDS011;7275;50.328;8.720;2023-05-17T12:31:06;2.95;;;1.70;;
14381;SDS011;7275;50.328;8.720;2023-05-17T12:33:38;3.50;;;1.70;;
14381;SDS011;7275;50.328;8.720;2023-05-17T12:36:08;2.92;;;1.67;;
14381;SDS011;7275;50.328;8.720;2023-05-17T12:38:38;3.00;;;1.60;;
14381;SDS011;7275;50.328;8.720;2023-05-17T12:41:07;3.63;;;1.80;;
14381;SDS011;7275;50.328;8.720;2023-05-17T12:43:37;2.75;;;1.60;;
14381;SDS011;7275;50.328;8.720;2023-05-17T12:46:06;2.95;;;1.40;;
14381;SDS011;7275;50.328;8.720;2023-05-17T12:48:35;3.50;;;1.70;;
14381;SDS011;7275;50.328;8.720;2023-05-17T12:51:08;2.78;;;1.73;;
14381;SDS011;7275;50.328;8.720;2023-05-17T12:53:37;3.60;;;1.63;;
14381;SDS011;7275;50.328;8.720;2023-05-17T12:56:06;2.83;;;1.42;;
14381;SDS011;7275;50.328;8.720;2023-05-17T12:58:34;3.45;;;1.75;;
14381;SDS011;7275;50.328;8.720;2023-05-17T13:01:02;3.03;;;1.55;;
14381;SDS011;7275;50.328;8.720;2023-05-17T13:03:32;3.80;;;1.70;;
14381;SDS011;7275;50.328;8.720;2023-05-17T13:06:00;3.38;;;1.70;;
14381;SDS011;7275;50.328;8.720;2023-05-17T13:08:31;3.65;;;1.60;;
14381;SDS011;7275;50.328;8.720;2023-05-17T13:11:06;3.08;;;1.70;;
14381;SDS011;7275;50.328;8.720;2023-05-17T13:13:34;3.15;;;1.60;;
14381;SDS011;7275;50.328;8.720;2023-05-17T13:16:02;3.47;;;1.52;;
14381;SDS011;7275;50.328;8.720;2023-05-17T13:18:31;2.13;;;1.38;;
14381;SDS011;7275;50.328;8.720;2023-05-17T13:21:13;3.00;;;1.50;;
14381;SDS011;7275;50.328;8.720;2023-05-17T13:23:42;3.80;;;1.58;;
14381;SDS011;7275;50.328;8.720;2023-05-17T13:26:10;3.70;;;1.75;;
14381;SDS011;7275;50.328;8.720;2023-05-17T13:28:38;4.35;;;1.88;;
14381;SDS011;7275;50.328;8.720;2023-05-17T13:31:06;2.92;;;1.65;;
14381;SDS011;7275;50.328;8.720;2023-05-17T13:33:34;3.83;;;1.70;;
14381;SDS011;7275;50.328;8.720;2023-05-17T13:36:02;4.25;;;1.60;;
14381;SDS011;7275;50.328;8.720;2023-05-17T13:38:30;2.67;;;1.63;;
14381;SDS011;7275;50.328;8.720;2023-05-17T13:40:58;3.17;;;1.55;;
14381;SDS011;7275;50.328;8.720;2023-05-17T13:43:26;3.05;;;1.45;;
14381;SDS011;7275;50.328;8.720;2023-05-17T13:45:54;3.13;;;1.40;;
14381;SDS011;7275;50.328;8.720;2023-05-17T13:48:25;3.25;;;1.65;;
14381;SDS011;7275;50.328;8.720;2023-05-17T13:50:52;3.40;;;1.60;;
14381;SDS011;7275;50.328;8.720;2023-05-17T13:53:20;4.55;;;1.90;;
14381;SDS011;7275;50.328;8.720;2023-05-17T13:55:48;3.85;;;1.60;;
14381;SDS011;7275;50.328;8.720;2023-05-17T13:58:17;2.97;;;1.70;;
14381;SDS011;7275;50.328;8.720;2023-05-17T14:00:44;3.83;;;1.60;;
14381;SDS011;7275;50.328;8.720;2023-05-17T14:03:12;3.03;;;1.45;;
14381;SDS011;7275;50.328;8.720;2023-05-17T14:05:40;2.85;;;1.70;;
14381;SDS011;7275;50.328;8.720;2023-05-17T14:08:07;3.60;;;1.50;;
14381;SDS011;7275;50.328;8.720;2023-05-17T14:10:35;3.22;;;1.80;;
14381;SDS011;7275;50.328;8.720;2023-05-17T14:13:03;3.22;;;1.80;;
14381;SDS011;7275;50.328;8.720;2023-05-17T14:15:31;2.60;;;1.40;;
14381;SDS011;7275;50.328;8.720;2023-05-17T14:18:03;3.88;;;1.83;;
14381;SDS011;7275;50.328;8.720;2023-05-17T14:20:31;3.28;;;1.80;;
14381;SDS011;7275;50.328;8.720;2023-05-17T14:22:59;3.65;;;1.70;;
14381;SDS011;7275;50.328;8.720;2023-05-17T14:25:27;2.30;;;1.50;;
14381;SDS011;7275;50.328;8.720;2023-05-17T14:27:55;2.25;;;1.30;;
14381;SDS011;7275;50.328;8.720;2023-05-17T14:30:23;3.47;;;1.70;;
14381;SDS011;7275;50.328;8.720;2023-05-17T14:32:52;3.10;;;1.48;;
14381;SDS011;7275;50.328;8.720;2023-05-17T14:35:19;2.92;;;1.38;;
14381;SDS011;7275;50.328;8.720;2023-05-17T14:37:47;2.95;;;1.48;;
14381;SDS011;7275;50.328;8.720;2023-05-17T14:40:14;2.80;;;1.70;;
14381;SDS011;7275;50.328;8.720;2023-05-17T14:42:42;3.03;;;1.60;;
14381;SDS011;7275;50.328;8.720;2023-05-17T14:45:10;2.35;;;1.60;;
14381;SDS011;7275;50.328;8.720;2023-05-17T14:47:37;2.38;;;1.42;;
14381;SDS011;7275;50.328;8.720;2023-05-17T14:50:07;3.63;;;1.50;;
14381;SDS011;7275;50.328;8.720;2023-05-17T14:52:35;2.72;;;1.65;;
14381;SDS011;7275;50.328;8.720;2023-05-17T14:55:03;3.47;;;1.65;;
14381;SDS011;7275;50.328;8.720;2023-05-17T14:57:31;3.33;;;1.70;;
14381;SDS011;7275;50.328;8.720;2023-05-17T14:59:59;2.83;;;1.55;;
14381;SDS011;7275;50.328;8.720;2023-05-17T15:02:27;4.40;;;1.60;;
14381;SDS011;7275;50.328;8.720;2023-05-17T15:04:54;2.78;;;1.50;;
14381;SDS011;7275;50.328;8.720;2023-05-17T15:07:24;3.42;;;1.60;;
14381;SDS011;7275;50.328;8.720;2023-05-17T15:09:51;3.53;;;1.70;;
14381;SDS011;7275;50.328;8.720;2023-05-17T15:12:19;2.10;;;1.30;;
14381;SDS011;7275;50.328;8.720;2023-05-17T15:14:47;5.10;;;1.60;;